createdAt,value
2022-11-05T00:00:25.803Z,5.86
2022-11-05T00:00:56.513Z,6.01
2022-11-05T00:01:27.078Z,6.16
2022-11-05T00:01:57.716Z,5.83
2022-11-05T00:02:28.310Z,6.17
2022-11-05T00:02:58.839Z,6.30
2022-11-05T00:03:29.354Z,6.11
2022-11-05T00:04:00.267Z,5.97
2022-11-05T00:04:31.170Z,6.27
2022-11-05T00:05:01.399Z,6.51
2022-11-05T00:05:31.822Z,6.26
2022-11-05T00:06:02.754Z,6.31
2022-11-05T00:06:33.919Z,6.33
2022-11-05T00:07:04.353Z,6.27
2022-11-05T00:07:35.246Z,6.22
2022-11-05T00:08:06.234Z,6.36
2022-11-05T00:08:36.750Z,6.36
2022-11-05T00:09:07.287Z,6.27
2022-11-05T00:09:37.988Z,6.22
2022-11-05T00:10:08.506Z,6.39
2022-11-05T00:10:38.993Z,6.30
2022-11-05T00:11:13.873Z,6.28
2022-11-05T00:11:41.901Z,5.99
2022-11-05T00:12:11.575Z,6.19
2022-11-05T00:12:42.101Z,6.04
2022-11-05T00:13:12.878Z,6.44
2022-11-05T00:13:43.057Z,6.39
2022-11-05T00:14:14.073Z,6.30
2022-11-05T00:14:44.588Z,6.41
2022-11-05T00:15:15.705Z,6.36
2022-11-05T00:15:46.213Z,6.11
2022-11-05T00:16:17.154Z,6.30
2022-11-05T00:16:48.147Z,6.52
2022-11-05T00:17:19.212Z,6.26
2022-11-05T00:17:49.756Z,6.44
2022-11-05T00:18:20.399Z,6.45
2022-11-05T00:18:50.924Z,6.57
2022-11-05T00:19:21.364Z,6.26
2022-11-05T00:19:51.904Z,6.12
2022-11-05T00:20:22.818Z,6.26
2022-11-05T00:20:53.764Z,6.17
2022-11-05T00:21:24.952Z,5.97
2022-11-05T00:21:55.493Z,6.09
2022-11-05T00:22:25.943Z,6.12
2022-11-05T00:22:56.891Z,6.64
2022-11-05T00:23:27.848Z,6.20
2022-11-05T00:23:58.879Z,6.41
2022-11-05T00:24:29.527Z,6.24
2022-11-05T00:25:00.025Z,6.19
2022-11-05T00:25:30.577Z,6.12
2022-11-05T00:26:01.038Z,5.91
2022-11-05T00:26:31.988Z,6.31
2022-11-05T00:27:03.001Z,6.31
2022-11-05T00:27:33.633Z,5.99
2022-11-05T00:28:04.142Z,6.35
2022-11-05T00:28:34.684Z,6.05
2022-11-05T00:29:05.143Z,6.39
2022-11-05T00:29:36.094Z,6.45
2022-11-05T00:30:07.081Z,6.44
2022-11-05T00:30:37.716Z,6.09
2022-11-05T00:31:08.227Z,6.09
2022-11-05T00:31:38.744Z,6.04
2022-11-05T00:32:09.268Z,6.14
2022-11-05T00:32:39.706Z,6.01
2022-11-05T00:33:11.098Z,6.36
2022-11-05T00:33:41.537Z,6.11
2022-11-05T00:34:12.067Z,6.33
2022-11-05T00:34:42.493Z,6.11
2022-11-05T00:35:13.497Z,6.26
2022-11-05T00:35:43.974Z,6.46
2022-11-05T00:36:14.911Z,5.86
2022-11-05T00:36:46.078Z,6.22
2022-11-05T00:37:16.625Z,6.22
2022-11-05T00:37:50.027Z,5.79
2022-11-05T00:38:17.586Z,6.30
2022-11-05T00:38:48.609Z,6.11
2022-11-05T00:39:19.112Z,5.94
2022-11-05T00:39:49.824Z,6.35
2022-11-05T00:40:20.347Z,6.49
2022-11-05T00:40:51.309Z,5.98
2022-11-05T00:41:22.245Z,6.27
2022-11-05T00:41:53.192Z,6.04
2022-11-05T00:42:24.352Z,6.09
2022-11-05T00:42:55.054Z,6.46
2022-11-05T00:43:25.758Z,6.26
2022-11-05T00:43:56.253Z,5.80
2022-11-05T00:45:48.566Z,6.02
2022-11-05T00:46:19.778Z,6.24
2022-11-05T00:46:50.308Z,5.99
2022-11-05T00:47:20.801Z,6.14
2022-11-05T00:47:51.742Z,5.76
2022-11-05T00:48:22.888Z,6.12
2022-11-05T00:48:53.401Z,6.27
2022-11-05T00:49:24.119Z,6.41
2022-11-05T00:49:54.695Z,6.14
2022-11-05T00:50:25.470Z,6.14
2022-11-05T00:50:55.975Z,5.89
2022-11-05T00:51:26.929Z,6.14
2022-11-05T00:51:57.906Z,5.94
2022-11-05T00:52:29.065Z,6.16
2022-11-05T00:52:59.778Z,5.84
2022-11-05T00:53:30.337Z,6.05
2022-11-05T00:54:01.351Z,6.01
2022-11-05T00:54:31.761Z,6.05
2022-11-05T00:55:02.797Z,5.91
2022-11-05T00:55:33.700Z,6.17
2022-11-05T00:56:04.242Z,5.82
2022-11-05T00:56:34.685Z,6.08
2022-11-05T00:57:05.686Z,6.12
2022-11-05T00:57:36.217Z,5.75
2022-11-05T00:58:07.147Z,5.90
2022-11-05T00:58:38.288Z,6.27
2022-11-05T00:59:08.832Z,6.20
2022-11-05T00:59:39.390Z,6.02
2022-11-05T01:00:09.819Z,5.80
2022-11-05T01:00:40.829Z,5.93
2022-11-05T01:01:11.373Z,6.28
2022-11-05T01:01:42.386Z,6.07
2022-11-05T01:02:12.775Z,6.02
2022-11-05T01:02:43.660Z,6.17
2022-11-05T01:03:14.661Z,5.82
2022-11-05T01:03:48.907Z,5.71
2022-11-05T01:04:16.132Z,5.79
2022-11-05T01:04:46.670Z,5.91
2022-11-05T01:05:17.108Z,5.87
2022-11-05T01:05:48.120Z,5.62
2022-11-05T01:06:19.041Z,5.82
2022-11-05T01:06:49.985Z,5.76
2022-11-05T01:07:21.179Z,6.11
2022-11-05T01:07:51.715Z,5.99
2022-11-05T01:08:22.155Z,5.69
2022-11-05T01:08:53.098Z,5.93
2022-11-05T01:09:24.103Z,5.82
2022-11-05T01:09:54.533Z,5.83
2022-11-05T01:10:25.662Z,5.89
2022-11-05T01:10:56.223Z,5.86
2022-11-05T01:11:26.853Z,5.80
2022-11-05T01:11:57.356Z,5.82
2022-11-05T01:12:28.254Z,6.04
2022-11-05T01:12:59.265Z,5.80
2022-11-05T01:13:29.983Z,5.73
2022-11-05T01:14:00.496Z,5.76
2022-11-05T01:14:31.436Z,6.08
2022-11-05T01:15:02.375Z,5.76
2022-11-05T01:15:33.383Z,5.71
2022-11-05T01:16:03.825Z,5.56
2022-11-05T01:16:34.541Z,5.59
2022-11-05T01:17:05.033Z,5.87
2022-11-05T01:17:35.458Z,5.79
2022-11-05T01:18:06.422Z,5.79
2022-11-05T01:18:37.431Z,5.72
2022-11-05T01:19:08.365Z,5.65
2022-11-05T01:19:39.587Z,5.72
2022-11-05T01:20:10.211Z,5.69
2022-11-05T01:20:40.739Z,5.83
2022-11-05T01:21:11.245Z,5.86
2022-11-05T01:21:41.700Z,5.61
2022-11-05T01:22:12.639Z,5.76
2022-11-05T01:22:43.767Z,6.22
2022-11-05T01:23:14.366Z,5.62
2022-11-05T01:23:44.829Z,5.80
2022-11-05T01:24:15.838Z,5.46
2022-11-05T01:24:46.769Z,5.51
2022-11-05T01:25:17.710Z,5.75
2022-11-05T01:25:48.843Z,5.50
2022-11-05T01:26:19.356Z,5.71
2022-11-05T01:26:49.883Z,6.08
2022-11-05T01:27:20.335Z,5.68
2022-11-05T01:27:51.379Z,5.90
2022-11-05T01:28:21.975Z,5.84
2022-11-05T01:28:52.851Z,5.75
2022-11-05T01:29:23.435Z,5.98
2022-11-05T01:29:54.339Z,5.64
2022-11-05T01:30:25.541Z,5.75
2022-11-05T01:30:56.052Z,5.61
2022-11-05T01:31:26.495Z,5.89
2022-11-05T01:31:57.623Z,5.86
2022-11-05T01:32:28.124Z,5.86
2022-11-05T01:32:58.637Z,6.07
2022-11-05T01:33:29.113Z,5.64
2022-11-05T01:34:00.051Z,5.69
2022-11-05T01:34:31.106Z,5.66
2022-11-05T01:35:01.725Z,5.64
2022-11-05T01:35:32.248Z,5.51
2022-11-05T01:36:02.686Z,5.99
2022-11-05T01:36:33.638Z,5.76
2022-11-05T01:37:04.594Z,5.65
2022-11-05T01:37:35.514Z,5.66
2022-11-05T01:38:06.648Z,5.75
2022-11-05T01:38:37.201Z,5.75
2022-11-05T01:39:07.714Z,5.79
2022-11-05T01:39:38.127Z,5.53
2022-11-05T01:40:09.184Z,5.33
2022-11-05T01:40:39.605Z,5.89
2022-11-05T01:41:10.711Z,5.84
2022-11-05T01:41:41.211Z,5.84
2022-11-05T01:42:12.146Z,5.61
2022-11-05T01:42:43.092Z,5.56
2022-11-05T01:43:14.015Z,5.48
2022-11-05T01:43:45.011Z,5.46
2022-11-05T01:44:16.198Z,5.30
2022-11-05T01:44:46.711Z,5.71
2022-11-05T01:45:17.647Z,5.59
2022-11-05T01:45:48.601Z,5.56
2022-11-05T01:46:19.541Z,5.66
2022-11-05T01:46:50.488Z,5.84
2022-11-05T01:47:21.720Z,5.94
2022-11-05T01:47:52.279Z,5.62
2022-11-05T01:48:22.744Z,5.79
2022-11-05T01:48:57.268Z,5.65
2022-11-05T01:49:25.781Z,5.54
2022-11-05T01:49:55.465Z,5.61
2022-11-05T01:50:25.969Z,6.20
2022-11-05T01:50:56.458Z,5.84
2022-11-05T01:51:27.394Z,5.61
2022-11-05T01:51:58.398Z,5.61
2022-11-05T01:52:28.853Z,5.79
2022-11-05T01:52:59.998Z,5.71
2022-11-05T01:53:30.512Z,5.71
2022-11-05T01:54:01.033Z,5.64
2022-11-05T01:54:31.463Z,5.94
2022-11-05T01:55:02.420Z,5.90
2022-11-05T01:55:33.436Z,5.75
2022-11-05T01:56:04.079Z,5.87
2022-11-05T01:56:34.597Z,5.56
2022-11-05T01:57:05.538Z,5.72
2022-11-05T01:57:36.520Z,5.61
2022-11-05T01:58:07.483Z,5.79
2022-11-05T01:58:38.496Z,5.51
2022-11-05T01:59:09.996Z,5.65
2022-11-05T01:59:39.960Z,5.68
2022-11-05T02:00:11.007Z,5.80
2022-11-05T02:00:41.472Z,5.75
2022-11-05T02:01:12.437Z,5.98
2022-11-05T02:01:43.771Z,5.72
2022-11-05T02:02:14.610Z,5.73
2022-11-05T02:02:45.487Z,5.82
2022-11-05T02:03:16.198Z,5.68
2022-11-05T02:03:46.687Z,5.69
2022-11-05T02:04:17.279Z,6.07
2022-11-05T02:04:47.916Z,5.69
2022-11-05T02:05:18.454Z,5.76
2022-11-05T02:05:48.912Z,5.75
2022-11-05T02:06:19.882Z,5.84
2022-11-05T02:06:50.826Z,5.76
2022-11-05T02:07:21.830Z,5.84
2022-11-05T02:07:52.467Z,5.86
2022-11-05T02:08:22.975Z,5.75
2022-11-05T02:08:53.484Z,5.97
2022-11-05T02:09:24.451Z,5.57
2022-11-05T02:09:55.492Z,5.50
2022-11-05T02:10:25.973Z,5.79
2022-11-05T02:10:56.698Z,5.82
2022-11-05T02:11:27.212Z,6.02
2022-11-05T02:11:58.137Z,5.98
2022-11-05T02:12:29.127Z,5.56
2022-11-05T02:13:00.122Z,5.82
2022-11-05T02:13:31.046Z,6.07
2022-11-05T02:14:02.175Z,5.75
2022-11-05T02:14:32.995Z,5.80
2022-11-05T02:15:03.518Z,5.82
2022-11-05T02:15:33.979Z,5.98
2022-11-05T02:16:04.926Z,5.83
2022-11-05T02:16:35.928Z,5.89
2022-11-05T02:17:07.073Z,6.14
2022-11-05T02:17:37.587Z,6.02
2022-11-05T02:18:08.534Z,5.93
2022-11-05T02:18:39.539Z,5.86
2022-11-05T02:19:10.103Z,5.93
2022-11-05T02:19:40.602Z,5.94
2022-11-05T02:20:11.742Z,5.84
2022-11-05T02:20:42.263Z,5.80
2022-11-05T02:21:12.716Z,5.89
2022-11-05T02:21:43.817Z,5.76
2022-11-05T02:22:14.260Z,5.99
2022-11-05T02:22:45.212Z,5.68
2022-11-05T02:23:16.332Z,5.62
2022-11-05T02:23:46.839Z,5.83
2022-11-05T02:24:17.293Z,6.16
2022-11-05T02:24:48.264Z,5.93
2022-11-05T02:25:19.201Z,6.01
2022-11-05T02:25:50.134Z,5.99
2022-11-05T02:26:21.253Z,5.82
2022-11-05T02:26:51.791Z,5.69
2022-11-05T02:27:22.229Z,5.64
2022-11-05T02:27:53.210Z,5.91
2022-11-05T02:28:24.156Z,5.69
2022-11-05T02:28:55.097Z,6.16
2022-11-05T02:29:26.302Z,6.12
2022-11-05T02:29:56.815Z,5.68
2022-11-05T02:30:27.736Z,5.82
2022-11-05T02:30:58.678Z,6.04
2022-11-05T02:31:29.605Z,6.16
2022-11-05T02:32:00.617Z,5.93
2022-11-05T02:32:31.280Z,5.82
2022-11-05T02:33:01.803Z,5.82
2022-11-05T02:33:32.322Z,5.99
2022-11-05T02:34:03.275Z,5.90
2022-11-05T02:34:34.212Z,5.87
2022-11-05T02:35:05.282Z,5.73
2022-11-05T02:35:35.919Z,5.93
2022-11-05T02:36:06.432Z,5.97
2022-11-05T02:36:37.367Z,5.90
2022-11-05T02:37:08.662Z,5.83
2022-11-05T02:37:39.382Z,6.12
2022-11-05T02:38:09.904Z,5.89
2022-11-05T02:38:41.038Z,6.01
2022-11-05T02:39:11.546Z,6.02
2022-11-05T02:39:42.046Z,5.94
2022-11-05T02:40:12.567Z,5.99
2022-11-05T02:40:43.075Z,5.75
2022-11-05T02:41:14.055Z,5.91
2022-11-05T02:41:45.193Z,5.86
2022-11-05T02:42:15.715Z,6.01
2022-11-05T02:42:46.215Z,6.12
2022-11-05T02:43:17.191Z,6.02
2022-11-05T02:43:48.186Z,5.69
2022-11-05T02:44:19.151Z,6.05
2022-11-05T02:44:50.284Z,5.91
2022-11-05T02:45:20.819Z,6.19
2022-11-05T02:45:51.464Z,5.89
2022-11-05T02:46:21.990Z,6.27
2022-11-05T02:46:52.452Z,5.75
2022-11-05T02:47:23.385Z,5.97
2022-11-05T02:47:54.501Z,6.07
2022-11-05T02:48:25.040Z,5.90
2022-11-05T02:48:55.560Z,5.86
2022-11-05T02:49:26.091Z,6.30
2022-11-05T02:49:56.517Z,6.07
2022-11-05T02:50:27.466Z,6.04
2022-11-05T02:50:58.602Z,5.99
2022-11-05T02:51:29.093Z,6.26
2022-11-05T02:51:59.612Z,5.83
2022-11-05T02:52:30.149Z,6.19
2022-11-05T02:53:00.604Z,5.80
2022-11-05T02:53:31.551Z,5.97
2022-11-05T02:54:02.705Z,6.14
2022-11-05T02:54:33.222Z,6.16
2022-11-05T02:55:03.755Z,5.66
2022-11-05T02:55:34.246Z,6.01
2022-11-05T02:56:05.193Z,6.27
2022-11-05T02:56:36.207Z,5.97
2022-11-05T02:57:07.369Z,5.99
2022-11-05T02:57:37.909Z,6.16
2022-11-05T02:58:08.416Z,5.87
2022-11-05T02:58:38.861Z,6.01
2022-11-05T02:59:09.819Z,5.86
2022-11-05T02:59:40.762Z,6.20
2022-11-05T03:00:11.903Z,6.05
2022-11-05T03:00:42.435Z,6.01
2022-11-05T03:01:12.868Z,5.90
2022-11-05T03:01:43.979Z,6.14
2022-11-05T03:02:14.819Z,5.98
2022-11-05T03:02:45.626Z,6.04
2022-11-05T03:03:16.499Z,5.90
2022-11-05T03:03:47.007Z,5.93
2022-11-05T03:04:17.523Z,5.86
2022-11-05T03:04:48.430Z,6.16
2022-11-05T03:05:19.372Z,6.04
2022-11-05T03:05:50.376Z,5.98
2022-11-05T03:06:21.012Z,6.12
2022-11-05T03:06:51.542Z,5.89
2022-11-05T03:07:22.031Z,6.14
2022-11-05T03:07:53.015Z,5.91
2022-11-05T03:08:23.968Z,5.97
2022-11-05T03:08:54.738Z,6.04
2022-11-05T03:09:25.872Z,5.99
2022-11-05T03:09:56.390Z,6.04
2022-11-05T03:10:26.938Z,5.79
2022-11-05T03:10:57.472Z,6.17
2022-11-05T03:11:27.930Z,6.24
2022-11-05T03:11:58.898Z,5.91
2022-11-05T03:12:30.033Z,6.12
2022-11-05T03:13:00.569Z,6.02
2022-11-05T03:13:31.086Z,6.08
2022-11-05T03:14:02.057Z,6.04
2022-11-05T03:14:33.055Z,5.86
2022-11-05T03:15:03.988Z,5.94
2022-11-05T03:15:35.493Z,5.82
2022-11-05T03:16:06.019Z,6.08
2022-11-05T03:16:36.531Z,5.84
2022-11-05T03:17:07.476Z,5.89
2022-11-05T03:17:38.416Z,6.14
2022-11-05T03:18:09.356Z,5.99
2022-11-05T03:18:40.557Z,6.24
2022-11-05T03:19:11.116Z,6.01
2022-11-05T03:19:41.590Z,6.16
2022-11-05T03:20:12.593Z,6.08
2022-11-05T03:20:43.573Z,5.89
2022-11-05T03:21:14.104Z,5.99
2022-11-05T03:21:44.758Z,6.09
2022-11-05T03:22:15.260Z,6.12
2022-11-05T03:22:46.240Z,6.31
2022-11-05T03:23:16.818Z,6.07
2022-11-05T03:23:47.308Z,5.89
2022-11-05T03:24:17.849Z,6.17
2022-11-05T03:24:48.471Z,5.98
2022-11-05T03:25:19.033Z,6.08
2022-11-05T03:25:49.520Z,5.82
2022-11-05T03:26:20.539Z,6.04
2022-11-05T03:26:51.054Z,6.05
2022-11-05T03:27:21.525Z,6.22
2022-11-05T03:27:52.672Z,6.20
2022-11-05T03:28:23.154Z,6.05
2022-11-05T03:28:54.110Z,5.90
2022-11-05T03:29:25.152Z,6.09
2022-11-05T03:29:55.609Z,6.09
2022-11-05T03:30:26.552Z,6.01
2022-11-05T03:30:57.678Z,5.86
2022-11-05T03:31:28.211Z,6.12
2022-11-05T03:31:58.648Z,6.08
2022-11-05T03:32:29.590Z,6.02
2022-11-05T03:33:00.551Z,6.20
2022-11-05T03:33:31.474Z,6.05
2022-11-05T03:34:02.697Z,5.93
2022-11-05T03:34:33.233Z,6.30
2022-11-05T03:35:03.680Z,6.16
2022-11-05T03:35:34.679Z,5.99
2022-11-05T03:36:05.630Z,6.08
2022-11-05T03:36:36.664Z,6.16
2022-11-05T03:37:07.331Z,6.16
2022-11-05T03:37:37.867Z,6.11
2022-11-05T03:38:08.421Z,5.94
2022-11-05T03:38:38.897Z,5.98
2022-11-05T03:39:09.431Z,6.09
2022-11-05T03:39:39.888Z,6.28
2022-11-05T03:40:11.008Z,6.11
2022-11-05T03:40:41.528Z,6.02
2022-11-05T03:41:12.026Z,6.27
2022-11-05T03:41:42.545Z,6.26
2022-11-05T03:42:13.027Z,6.01
2022-11-05T03:42:43.941Z,6.41
2022-11-05T03:43:15.148Z,6.08
2022-11-05T03:43:45.691Z,5.99
2022-11-05T03:44:16.106Z,5.89
2022-11-05T03:44:47.247Z,5.91
2022-11-05T03:45:17.738Z,6.28
2022-11-05T03:45:48.254Z,6.16
2022-11-05T03:46:18.862Z,5.93
2022-11-05T03:46:49.453Z,6.08
2022-11-05T03:47:19.981Z,6.05
2022-11-05T03:47:50.422Z,6.19
2022-11-05T03:48:21.506Z,6.04
2022-11-05T03:48:52.064Z,6.11
2022-11-05T03:49:23.008Z,6.17
2022-11-05T03:49:53.553Z,6.04
2022-11-05T03:50:24.228Z,6.35
2022-11-05T03:50:54.775Z,6.02
2022-11-05T03:51:25.222Z,5.99
2022-11-05T03:51:56.288Z,6.08
2022-11-05T03:52:26.914Z,6.09
2022-11-05T03:52:57.451Z,5.99
2022-11-05T03:53:27.966Z,6.01
2022-11-05T03:53:58.442Z,6.22
2022-11-05T03:54:29.388Z,5.97
2022-11-05T03:55:02.187Z,6.05
2022-11-05T03:55:31.379Z,5.91
2022-11-05T03:56:01.948Z,6.17
2022-11-05T03:56:32.397Z,6.05
2022-11-05T03:57:03.353Z,6.02
2022-11-05T03:57:34.417Z,6.16
2022-11-05T03:58:04.926Z,6.04
2022-11-05T03:58:36.103Z,6.08
2022-11-05T03:59:06.648Z,5.98
2022-11-05T03:59:37.094Z,5.91
2022-11-05T04:00:08.101Z,6.07
2022-11-05T04:00:38.595Z,6.14
2022-11-05T04:01:09.595Z,6.22
2022-11-05T04:01:40.442Z,5.98
2022-11-05T04:02:10.881Z,6.11
2022-11-05T04:02:41.722Z,6.31
2022-11-05T04:03:12.983Z,6.01
2022-11-05T04:03:43.214Z,6.22
2022-11-05T04:04:13.668Z,6.20
2022-11-05T04:04:44.783Z,5.98
2022-11-05T04:05:15.313Z,6.38
2022-11-05T04:05:45.850Z,6.12
2022-11-05T04:06:16.295Z,6.11
2022-11-05T04:06:47.258Z,6.12
2022-11-05T04:07:18.220Z,6.08
2022-11-05T04:07:49.411Z,6.35
2022-11-05T04:08:19.917Z,6.27
2022-11-05T04:08:50.398Z,6.22
2022-11-05T04:09:20.934Z,6.20
2022-11-05T04:09:51.457Z,6.48
2022-11-05T04:10:21.871Z,6.02
2022-11-05T04:10:53.080Z,6.08
2022-11-05T04:11:23.598Z,6.22
2022-11-05T04:11:54.116Z,6.20
2022-11-05T04:12:25.075Z,6.19
2022-11-05T04:12:56.090Z,6.31
2022-11-05T04:13:26.663Z,6.26
2022-11-05T04:13:57.420Z,6.11
2022-11-05T04:14:27.932Z,6.12
2022-11-05T04:14:58.917Z,5.91
2022-11-05T04:15:29.888Z,6.30
2022-11-05T04:16:00.815Z,6.33
2022-11-05T04:16:31.787Z,6.04
2022-11-05T04:17:02.900Z,6.16
2022-11-05T04:17:33.445Z,6.44
2022-11-05T04:18:03.921Z,6.17
2022-11-05T04:18:34.874Z,6.30
2022-11-05T04:19:05.892Z,6.28
2022-11-05T04:19:36.326Z,6.04
2022-11-05T04:20:07.538Z,6.17
2022-11-05T04:20:38.047Z,6.05
2022-11-05T04:21:08.995Z,6.35
2022-11-05T04:21:39.946Z,6.07
2022-11-05T04:22:10.874Z,6.12
2022-11-05T04:22:41.904Z,6.11
2022-11-05T04:23:12.775Z,6.24
2022-11-05T04:23:43.004Z,6.19
2022-11-05T04:24:13.953Z,6.33
2022-11-05T04:24:44.929Z,6.19
2022-11-05T04:25:15.859Z,6.45
2022-11-05T04:25:46.832Z,6.33
2022-11-05T04:26:17.954Z,5.97
2022-11-05T04:26:48.443Z,6.30
2022-11-05T04:27:19.389Z,6.24
2022-11-05T04:27:50.395Z,6.20
2022-11-05T04:28:22.549Z,6.19
2022-11-05T04:28:51.510Z,6.39
2022-11-05T04:29:22.721Z,6.30
2022-11-05T04:29:53.216Z,6.42
2022-11-05T04:30:24.162Z,6.17
2022-11-05T04:30:55.144Z,6.36
2022-11-05T04:31:26.116Z,6.05
2022-11-05T04:31:57.048Z,6.48
2022-11-05T04:32:28.568Z,6.09
2022-11-05T04:32:58.630Z,6.19
2022-11-05T04:33:29.087Z,6.41
2022-11-05T04:34:00.039Z,6.12
2022-11-05T04:34:30.994Z,6.14
2022-11-05T04:35:01.984Z,6.20
2022-11-05T04:35:32.631Z,6.77
2022-11-05T04:36:03.370Z,6.14
2022-11-05T04:36:33.894Z,6.35
2022-11-05T04:37:04.356Z,6.42
2022-11-05T04:37:35.325Z,6.49
2022-11-05T04:38:06.329Z,6.45
2022-11-05T04:38:37.039Z,6.31
2022-11-05T04:39:07.552Z,6.12
2022-11-05T04:39:38.492Z,6.56
2022-11-05T04:40:09.438Z,6.56
2022-11-05T04:40:40.416Z,6.54
2022-11-05T04:41:11.360Z,6.52
2022-11-05T04:41:42.570Z,6.27
2022-11-05T04:42:13.085Z,6.46
2022-11-05T04:42:43.606Z,6.60
2022-11-05T04:43:15.265Z,6.39
2022-11-05T04:43:44.713Z,6.30
2022-11-05T04:44:15.249Z,6.41
2022-11-05T04:44:46.374Z,6.44
2022-11-05T04:45:16.893Z,6.54
2022-11-05T04:45:47.360Z,6.42
2022-11-05T04:46:18.347Z,6.56
2022-11-05T04:46:49.366Z,6.27
2022-11-05T04:47:19.814Z,6.51
2022-11-05T04:47:51.018Z,6.48
2022-11-05T04:48:21.538Z,6.31
2022-11-05T04:48:51.978Z,6.24
2022-11-05T04:49:22.930Z,6.38
2022-11-05T04:49:53.969Z,6.52
2022-11-05T04:50:24.426Z,6.35
2022-11-05T04:50:55.597Z,6.51
2022-11-05T04:51:26.115Z,6.59
2022-11-05T04:51:56.572Z,6.59
2022-11-05T04:52:27.536Z,6.42
2022-11-05T04:52:58.489Z,6.45
2022-11-05T04:53:29.465Z,6.16
2022-11-05T04:54:00.631Z,6.11
2022-11-05T04:54:31.145Z,6.22
2022-11-05T04:55:01.621Z,6.20
2022-11-05T04:55:32.617Z,6.20
2022-11-05T04:56:03.178Z,6.14
2022-11-05T04:56:33.593Z,6.09
2022-11-05T04:57:04.814Z,6.38
2022-11-05T04:57:35.331Z,6.08
2022-11-05T04:58:05.787Z,6.41
2022-11-05T04:58:36.762Z,6.30
2022-11-05T04:59:07.784Z,6.54
2022-11-05T04:59:38.232Z,6.22
2022-11-05T05:00:09.353Z,6.12
2022-11-05T05:00:39.969Z,6.60
2022-11-05T05:01:10.829Z,6.41
2022-11-05T05:01:41.516Z,6.17
2022-11-05T05:02:12.148Z,6.16
2022-11-05T05:02:42.671Z,6.19
2022-11-05T05:03:14.084Z,6.49
2022-11-05T05:03:44.397Z,6.48
2022-11-05T05:04:14.835Z,6.60
2022-11-05T05:04:45.532Z,6.38
2022-11-05T05:05:16.556Z,6.33
2022-11-05T05:05:47.037Z,6.22
2022-11-05T05:06:18.174Z,6.16
2022-11-05T05:06:48.698Z,6.52
2022-11-05T05:07:19.418Z,6.33
2022-11-05T05:07:49.969Z,6.41
2022-11-05T05:08:20.431Z,6.11
2022-11-05T05:08:51.448Z,6.01
2022-11-05T05:09:22.429Z,6.17
2022-11-05T05:09:52.922Z,6.30
2022-11-05T05:10:23.369Z,6.12
2022-11-05T05:10:54.323Z,6.49
2022-11-05T05:11:25.262Z,6.19
2022-11-05T05:11:56.220Z,6.48
2022-11-05T05:12:27.425Z,6.48
2022-11-05T05:12:57.938Z,6.48
2022-11-05T05:13:28.832Z,6.11
2022-11-05T05:13:59.791Z,6.22
2022-11-05T05:14:30.730Z,6.16
2022-11-05T05:15:01.734Z,6.19
2022-11-05T05:15:32.370Z,6.31
2022-11-05T05:16:02.871Z,6.12
2022-11-05T05:16:33.397Z,6.11
2022-11-05T05:17:03.917Z,6.60
2022-11-05T05:17:34.841Z,6.48
2022-11-05T05:18:05.813Z,6.36
2022-11-05T05:18:39.818Z,6.14
2022-11-05T05:19:08.409Z,6.08
2022-11-05T05:19:37.846Z,6.27
2022-11-05T05:20:08.773Z,6.24
2022-11-05T05:20:39.766Z,6.16
2022-11-05T05:21:11.197Z,6.52
2022-11-05T05:21:41.765Z,6.49
2022-11-05T05:22:12.235Z,6.46
2022-11-05T05:22:43.244Z,6.39
2022-11-05T05:23:13.864Z,6.31
2022-11-05T05:23:44.628Z,6.41
2022-11-05T05:24:15.852Z,6.24
2022-11-05T05:24:52.436Z,6.12
2022-11-05T05:25:18.357Z,6.31
2022-11-05T05:25:47.791Z,6.38
2022-11-05T05:26:18.796Z,6.33
2022-11-05T05:26:49.444Z,6.33
2022-11-05T05:27:19.959Z,6.31
2022-11-05T05:27:50.947Z,6.36
2022-11-05T05:28:21.890Z,6.48
2022-11-05T05:28:52.899Z,6.24
2022-11-05T05:29:23.856Z,6.35
2022-11-05T05:29:54.999Z,6.20
2022-11-05T05:30:25.517Z,6.46
2022-11-05T05:30:58.723Z,6.39
2022-11-05T05:31:26.574Z,6.16
2022-11-05T05:31:57.486Z,6.24
2022-11-05T05:32:28.428Z,6.31
2022-11-05T05:32:59.571Z,6.56
2022-11-05T05:33:30.075Z,6.41
2022-11-05T05:34:00.603Z,6.35
2022-11-05T05:34:31.130Z,6.49
2022-11-05T05:35:01.674Z,6.24
2022-11-05T05:35:32.192Z,6.28
2022-11-05T05:36:05.834Z,6.28
2022-11-05T05:36:34.526Z,6.09
2022-11-05T05:37:04.065Z,6.07
2022-11-05T05:37:34.997Z,6.45
2022-11-05T05:38:05.997Z,6.31
2022-11-05T05:38:37.135Z,6.35
2022-11-05T05:39:07.636Z,6.20
2022-11-05T05:39:38.670Z,6.77
2022-11-05T05:40:09.181Z,6.56
2022-11-05T05:40:39.618Z,6.38
2022-11-05T05:41:10.635Z,6.39
2022-11-05T05:41:41.287Z,6.33
2022-11-05T05:42:11.808Z,6.36
2022-11-05T05:42:43.521Z,6.38
2022-11-05T05:43:13.546Z,6.26
2022-11-05T05:43:44.103Z,6.26
2022-11-05T05:44:15.113Z,6.38
2022-11-05T05:44:46.277Z,6.19
2022-11-05T05:45:16.801Z,6.41
2022-11-05T05:45:47.247Z,6.39
2022-11-05T05:46:18.193Z,6.46
2022-11-05T05:46:49.662Z,6.36
2022-11-05T05:47:20.107Z,6.22
2022-11-05T05:47:51.255Z,6.28
2022-11-05T05:48:21.754Z,6.54
2022-11-05T05:48:52.702Z,6.46
2022-11-05T05:49:23.672Z,6.48
2022-11-05T05:49:54.695Z,6.41
2022-11-05T05:50:25.196Z,6.22
2022-11-05T05:50:56.093Z,6.31
2022-11-05T05:51:26.611Z,6.31
2022-11-05T05:51:57.103Z,6.39
2022-11-05T05:52:28.037Z,6.48
2022-11-05T05:52:58.978Z,6.07
2022-11-05T05:53:29.936Z,6.08
2022-11-05T05:54:01.076Z,6.11
2022-11-05T05:54:34.202Z,6.46
2022-11-05T05:55:02.478Z,6.14
2022-11-05T05:55:33.517Z,6.45
2022-11-05T05:56:04.003Z,6.30
2022-11-05T05:56:34.608Z,6.39
2022-11-05T05:57:05.341Z,6.38
2022-11-05T05:57:35.885Z,6.31
2022-11-05T05:58:06.352Z,6.26
2022-11-05T05:58:37.288Z,6.20
2022-11-05T05:59:08.254Z,6.46
2022-11-05T05:59:39.309Z,6.46
2022-11-05T06:00:10.005Z,6.22
2022-11-05T06:00:40.446Z,6.48
2022-11-05T06:01:17.264Z,6.77
2022-11-05T06:01:42.623Z,6.44
2022-11-05T06:02:13.413Z,6.51
2022-11-05T06:02:44.467Z,6.07
2022-11-05T06:03:15.375Z,6.36
2022-11-05T06:03:46.119Z,6.41
2022-11-05T06:04:16.618Z,6.31
2022-11-05T06:04:47.589Z,6.62
2022-11-05T06:05:18.635Z,6.64
2022-11-05T06:05:49.259Z,6.19
2022-11-05T06:06:19.964Z,6.45
2022-11-05T06:06:50.449Z,6.28
2022-11-05T06:07:21.410Z,6.36
2022-11-05T06:07:52.371Z,6.52
2022-11-05T06:08:23.361Z,6.46
2022-11-05T06:08:54.056Z,6.70
2022-11-05T06:09:24.572Z,6.45
2022-11-05T06:09:55.105Z,6.75
2022-11-05T06:10:25.685Z,6.38
2022-11-05T06:10:56.239Z,6.45
2022-11-05T06:11:26.711Z,6.35
2022-11-05T06:11:57.841Z,6.28
2022-11-05T06:12:28.549Z,6.39
2022-11-05T06:12:59.003Z,6.54
2022-11-05T06:13:29.914Z,6.41
2022-11-05T06:14:00.879Z,6.39
2022-11-05T06:14:31.760Z,6.45
2022-11-05T06:15:02.835Z,6.49
2022-11-05T06:15:36.051Z,7.00
2022-11-05T06:16:03.965Z,6.38
2022-11-05T06:16:34.875Z,6.75
2022-11-05T06:17:05.829Z,6.70
2022-11-05T06:17:36.791Z,6.70
2022-11-05T06:18:07.957Z,6.42
2022-11-05T06:18:38.422Z,6.79
2022-11-05T06:19:09.313Z,6.72
2022-11-05T06:19:40.291Z,6.63
2022-11-05T06:20:11.246Z,6.59
2022-11-05T06:20:42.170Z,6.52
2022-11-05T06:21:13.391Z,6.41
2022-11-05T06:21:43.895Z,6.44
2022-11-05T06:22:14.788Z,6.45
2022-11-05T06:22:45.690Z,6.67
2022-11-05T06:23:16.597Z,6.72
2022-11-05T06:23:47.516Z,6.38
2022-11-05T06:24:18.600Z,6.41
2022-11-05T06:24:49.045Z,6.54
2022-11-05T06:25:19.976Z,6.44
2022-11-05T06:25:50.960Z,6.75
2022-11-05T06:26:21.367Z,6.56
2022-11-05T06:26:52.353Z,6.70
2022-11-05T06:27:23.491Z,6.41
2022-11-05T06:27:53.991Z,6.42
2022-11-05T06:28:24.426Z,6.75
2022-11-05T06:28:55.331Z,6.56
2022-11-05T06:29:26.313Z,6.66
2022-11-05T06:29:57.267Z,6.70
2022-11-05T06:30:28.339Z,6.57
2022-11-05T06:30:58.820Z,6.70
2022-11-05T06:31:29.717Z,6.38
2022-11-05T06:32:00.599Z,6.72
2022-11-05T06:32:31.538Z,6.63
2022-11-05T06:33:02.411Z,6.67
2022-11-05T06:33:33.492Z,6.63
2022-11-05T06:34:03.944Z,6.16
2022-11-05T06:34:34.828Z,6.77
2022-11-05T06:35:05.713Z,6.70
2022-11-05T06:35:36.677Z,6.42
2022-11-05T06:36:07.661Z,6.63
2022-11-05T06:36:38.362Z,6.60
2022-11-05T06:37:08.780Z,6.56
2022-11-05T06:37:39.679Z,6.30
2022-11-05T06:38:10.650Z,6.45
2022-11-05T06:38:41.757Z,6.56
2022-11-05T06:39:12.223Z,6.72
2022-11-05T06:39:43.345Z,6.46
2022-11-05T06:40:13.831Z,6.51
2022-11-05T06:40:44.796Z,6.54
2022-11-05T06:41:15.751Z,6.99
2022-11-05T06:42:12.067Z,6.59
2022-11-05T06:42:19.425Z,6.62
2022-11-05T06:42:48.299Z,6.48
2022-11-05T06:43:18.754Z,6.54
2022-11-05T06:43:49.645Z,6.59
2022-11-05T06:44:20.583Z,6.70
2022-11-05T06:44:51.474Z,6.54
2022-11-05T06:45:22.373Z,6.52
2022-11-05T06:45:53.504Z,6.08
2022-11-05T06:46:23.995Z,6.48
2022-11-05T06:46:54.900Z,6.41
2022-11-05T06:47:25.861Z,6.49
2022-11-05T06:47:56.822Z,6.60
2022-11-05T06:48:27.758Z,6.66
2022-11-05T06:48:58.827Z,6.75
2022-11-05T06:49:29.306Z,6.88
2022-11-05T06:50:00.290Z,6.22
2022-11-05T06:50:30.768Z,6.60
2022-11-05T06:51:01.783Z,6.45